Time;durP1;ratioP1;P1;durP2;ratioP2;P2;SDS_P1;SDS_P2;PMS_P1;PMS_P2;Temp;Humidity;BMP_temperature;BMP_pressure;BME280_temperature;BME280_humidity;BME280_pressure;Samples;Min_cycle;Max_cycle;Signal;HPM_P1;HPM_P2
2021/11/27 00:00:23;;;;;;;0.22;0.15;;;;;;;2.18;79.51;96623.72;4968032;28;20508;-52
2021/11/27 00:02:49;;;;;;;9.20;0.25;;;;;;;2.18;79.30;96616.91;4949809;28;20069;-54
2021/11/27 00:05:17;;;;;;;1.58;0.30;;;;;;;2.16;80.14;96628.84;4961514;28;20130;-52
2021/11/27 00:07:44;;;;;;;0.30;0.30;;;;;;;2.16;80.17;96628.03;4966866;28;20050;-55
2021/11/27 00:10:13;;;;;;;1.98;0.82;;;;;;;2.19;80.20;96622.81;4966984;28;20275;-52
2021/11/27 00:12:40;;;;;;;0.45;0.35;;;;;;;2.22;80.58;96622.75;4967024;28;20047;-57
2021/11/27 00:15:08;;;;;;;0.40;0.35;;;;;;;2.23;80.15;96638.94;4967267;28;20047;-50
2021/11/27 00:17:37;;;;;;;0.45;0.35;;;;;;;2.23;79.35;96639.75;4967883;28;20043;-52
2021/11/27 00:20:08;;;;;;;0.40;0.25;;;;;;;2.26;80.56;96632.03;4965455;28;20047;-50
2021/11/27 00:22:35;;;;;;;0.32;0.32;;;;;;;2.28;80.52;96637.09;4967424;28;20490;-51
2021/11/27 00:25:02;;;;;;;0.73;0.35;;;;;;;2.33;80.46;96625.03;4970390;28;20499;-54
2021/11/27 00:27:29;;;;;;;0.30;0.30;;;;;;;2.37;79.67;96636.03;4968657;28;20042;-54
2021/11/27 00:29:56;;;;;;;1.40;0.32;;;;;;;2.39;78.76;96654.69;4971618;28;20054;-52
2021/11/27 00:32:23;;;;;;;0.45;0.20;;;;;;;2.40;78.75;96651.28;4971339;28;20051;-49
2021/11/27 00:34:51;;;;;;;0.55;0.55;;;;;;;2.46;79.67;96645.19;4967253;28;20070;-50
2021/11/27 00:37:17;;;;;;;1.65;0.63;;;;;;;2.47;78.93;96660.47;4968660;28;20054;-51
2021/11/27 00:39:44;;;;;;;0.28;0.10;;;;;;;2.50;80.09;96672.34;4971808;28;20051;-53
2021/11/27 00:42:11;;;;;;;0.28;0.10;;;;;;;2.51;79.92;96677.41;4971729;28;20062;-52
2021/11/27 00:44:37;;;;;;;1.48;0.70;;;;;;;2.55;80.15;96686.69;4970581;28;20043;-53
2021/11/27 00:47:04;;;;;;;0.60;0.45;;;;;;;2.56;79.98;96698.56;4969627;28;20054;-52
2021/11/27 00:49:32;;;;;;;0.77;0.38;;;;;;;2.60;80.07;96693.38;4968315;28;20050;-48
2021/11/27 00:51:59;;;;;;;0.50;0.32;;;;;;;2.62;79.59;96704.38;4969943;28;20054;-52
2021/11/27 00:54:26;;;;;;;1.70;0.40;;;;;;;2.65;79.27;96704.31;4970002;28;20644;-53
2021/11/27 00:56:53;;;;;;;0.47;0.32;;;;;;;2.65;78.96;96712.00;4980691;28;20101;-53
2021/11/27 00:59:19;;;;;;;1.17;0.40;;;;;;;2.69;79.00;96731.47;4970169;28;20050;-51
2021/11/27 01:01:49;;;;;;;0.30;0.20;;;;;;;2.74;79.46;96734.78;4970400;28;20065;-53
2021/11/27 01:04:16;;;;;;;0.82;0.55;;;;;;;2.81;79.43;96748.25;4970132;28;20047;-54
2021/11/27 01:06:42;;;;;;;0.40;0.20;;;;;;;2.85;80.13;96754.09;4966893;28;20062;-52
2021/11/27 01:09:12;;;;;;;1.08;0.57;;;;;;;2.93;79.86;96752.19;4969904;28;20062;-53
2021/11/27 01:11:43;;;;;;;0.88;0.32;;;;;;;2.98;78.88;96747.81;4970772;28;20050;-49
2021/11/27 01:14:13;;;;;;;1.08;0.98;;;;;;;3.05;78.95;96759.56;4977195;28;20098;-47
2021/11/27 01:16:43;;;;;;;2.05;0.75;;;;;;;3.12;78.96;96779.84;4967603;28;20045;-49
2021/11/27 01:19:11;;;;;;;2.33;0.55;;;;;;;3.21;78.38;96777.09;4968012;28;20502;-50
2021/11/27 01:21:41;;;;;;;0.98;0.50;;;;;;;3.21;77.88;96802.66;4968472;28;20121;-51
2021/11/27 01:24:11;;;;;;;7.07;0.70;;;;;;;3.21;78.58;96802.66;4970992;28;20055;-57
2021/11/27 01:26:38;;;;;;;1.10;0.63;;;;;;;3.26;78.03;96798.25;4970476;28;20039;-49
2021/11/27 01:29:21;;;;;;;0.80;0.40;;;;;;;3.27;78.47;96797.38;4969310;28;20054;-52
2021/11/27 01:31:49;;;;;;;1.00;0.60;;;;;;;3.29;77.54;96825.47;4965898;28;20071;-48
2021/11/27 01:34:15;;;;;;;0.57;0.40;;;;;;;3.27;78.28;96830.63;4981156;28;20050;-54
2021/11/27 01:36:42;;;;;;;1.45;0.63;;;;;;;3.28;79.07;96855.31;4964863;28;21975;-50
2021/11/27 01:39:09;;;;;;;0.73;0.55;;;;;;;3.25;77.64;96840.06;4971350;28;20138;-57
2021/11/27 01:41:37;;;;;;;2.83;0.65;;;;;;;3.21;79.34;96874.28;4968218;28;20046;-54
2021/11/27 01:44:04;;;;;;;0.75;0.38;;;;;;;3.13;77.82;96873.59;4979994;28;20109;-52
2021/11/27 01:46:33;;;;;;;0.82;0.70;;;;;;;3.07;78.11;96883.09;4965630;28;20415;-52
2021/11/27 01:49:02;;;;;;;0.80;0.43;;;;;;;3.04;78.77;96901.06;4966720;28;20057;-50
2021/11/27 01:51:29;;;;;;;0.40;0.40;;;;;;;2.95;79.10;96884.22;4968206;28;20051;-57
2021/11/27 01:54:03;;;;;;;0.35;0.30;;;;;;;2.87;78.64;96926.19;4969445;28;20493;-58
2021/11/27 01:56:34;;;;;;;1.77;0.50;;;;;;;2.79;79.16;96919.53;4968061;28;20129;-50
2021/11/27 01:59:01;;;;;;;1.10;0.38;;;;;;;2.67;78.16;96919.81;4969333;28;20043;-51
2021/11/27 02:01:30;;;;;;;0.52;0.32;;;;;;;2.59;77.98;96919.94;4967745;28;20179;-55
2021/11/27 02:03:59;;;;;;;0.50;0.20;;;;;;;2.45;78.42;96935.56;4970583;28;20506;-55
2021/11/27 02:06:28;;;;;;;0.30;0.30;;;;;;;2.35;77.75;96919.59;4968207;28;20047;-53
2021/11/27 02:08:56;;;;;;;0.50;0.43;;;;;;;2.24;76.96;96940.22;4970030;28;20406;-47
2021/11/27 02:11:30;;;;;;;0.10;0.10;;;;;;;2.13;77.60;96948.09;4980064;28;20053;-49
2021/11/27 02:13:57;;;;;;;0.20;0.17;;;;;;;2.07;77.90;96971.19;4969899;28;20133;-51
2021/11/27 02:16:24;;;;;;;0.75;0.20;;;;;;;1.99;77.67;96968.75;4969220;28;20054;-50
2021/11/27 02:18:52;;;;;;;0.10;0.10;;;;;;;1.97;78.27;96978.19;4968647;28;20049;-50
2021/11/27 02:21:22;;;;;;;0.10;0.10;;;;;;;1.95;79.01;96990.09;4969673;28;20055;-49
2021/11/27 02:23:51;;;;;;;0.20;0.15;;;;;;;1.88;78.65;97001.28;4968997;28;20053;-50
2021/11/27 02:26:21;;;;;;;0.90;0.30;;;;;;;1.83;78.18;97005.63;4969290;28;20513;-53
2021/11/27 02:28:55;;;;;;;0.75;0.30;;;;;;;1.77;78.81;97004.88;4966545;28;20047;-53
2021/11/27 02:31:24;;;;;;;0.20;0.20;;;;;;;1.78;79.57;97021.88;4968060;28;20106;-49
2021/11/27 02:33:52;;;;;;;0.63;0.30;;;;;;;1.84;79.81;97022.63;4970519;28;20059;-53
2021/11/27 02:36:19;;;;;;;0.15;0.15;;;;;;;1.86;78.58;97041.31;4968097;28;20050;-47
2021/11/27 02:38:48;;;;;;;0.13;0.13;;;;;;;1.89;79.28;97043.84;4969442;28;20046;-53
2021/11/27 02:41:15;;;;;;;0.57;0.57;;;;;;;1.90;79.72;97045.50;4968797;28;20050;-57
2021/11/27 02:43:41;;;;;;;0.60;0.30;;;;;;;1.95;80.09;97051.38;4967848;28;20079;-52
2021/11/27 02:46:08;;;;;;;2.40;0.10;;;;;;;1.93;79.07;97051.41;4968428;28;20430;-52
2021/11/27 02:48:35;;;;;;;0.15;0.10;;;;;;;1.99;79.04;97054.75;4966522;28;20077;-54
2021/11/27 02:51:02;;;;;;;0.43;0.15;;;;;;;1.99;79.88;97068.31;4968998;28;20571;-50
2021/11/27 02:53:30;;;;;;;1.17;0.20;;;;;;;2.04;79.13;97066.56;4966870;28;20058;-57
2021/11/27 02:55:56;;;;;;;1.27;0.85;;;;;;;2.01;77.76;97081.06;4968287;28;20046;-51
2021/11/27 02:58:23;;;;;;;0.57;0.40;;;;;;;1.92;77.58;97076.94;4968152;28;20050;-50
2021/11/27 03:00:53;;;;;;;0.20;0.20;;;;;;;1.83;77.94;97083.06;4967627;28;20050;-53
2021/11/27 03:03:20;;;;;;;0.52;0.25;;;;;;;1.72;77.68;97083.19;4968122;28;20055;-57
2021/11/27 03:05:47;;;;;;;0.20;0.15;;;;;;;1.71;76.90;97094.28;4967025;28;20466;-59
2021/11/27 03:08:14;;;;;;;0.10;0.10;;;;;;;1.70;78.43;97087.50;4968886;28;20038;-51
2021/11/27 03:10:41;;;;;;;0.30;0.10;;;;;;;1.66;77.08;97083.31;4964918;28;20047;-54
2021/11/27 03:13:07;;;;;;;1.90;0.40;;;;;;;1.62;78.30;97102.09;4964277;28;20058;-51
2021/11/27 03:15:41;;;;;;;0.10;0.10;;;;;;;1.54;77.84;97100.47;4968566;28;20078;-50
2021/11/27 03:18:09;;;;;;;0.20;0.13;;;;;;;1.49;77.07;97097.13;4967973;28;20042;-51
2021/11/27 03:20:36;;;;;;;0.20;0.13;;;;;;;1.49;77.65;97107.34;4968674;28;20050;-52
2021/11/27 03:23:05;;;;;;;0.20;0.10;;;;;;;1.40;76.98;97121.06;4966838;28;20046;-51
2021/11/27 03:25:32;;;;;;;0.10;0.10;;;;;;;1.39;77.57;97128.75;4967221;28;20039;-53
2021/11/27 03:27:58;;;;;;;0.20;0.10;;;;;;;1.35;77.33;97139.84;4966447;28;20050;-51
2021/11/27 03:30:25;;;;;;;0.45;0.45;;;;;;;1.23;77.39;97154.44;4967991;28;20732;-52
2021/11/27 03:32:52;;;;;;;0.30;0.30;;;;;;;1.19;78.43;97160.44;4969828;28;20051;-53
2021/11/27 03:35:20;;;;;;;0.30;0.10;;;;;;;1.11;78.66;97164.75;4967546;28;20117;-52
2021/11/27 03:37:47;;;;;;;0.25;0.10;;;;;;;1.07;77.08;97165.66;4968314;28;20062;-54
2021/11/27 03:40:15;;;;;;;0.20;0.20;;;;;;;0.97;78.24;97168.31;4967560;28;20078;-51
2021/11/27 03:42:42;;;;;;;0.20;0.20;;;;;;;0.97;78.45;97170.00;4967323;28;20050;-49
2021/11/27 03:45:13;;;;;;;1.38;0.10;;;;;;;0.91;78.09;97183.66;4980054;28;20066;-53
2021/11/27 03:48:04;;;;;;;0.10;0.10;;;;;;;0.84;78.50;97174.41;4965522;28;20105;-49
2021/11/27 03:50:36;;;;;;;0.20;0.17;;;;;;;0.83;78.84;97182.88;4966597;28;20138;-52
2021/11/27 03:53:04;;;;;;;0.35;0.35;;;;;;;0.83;78.47;97193.09;4964644;28;20138;-51
2021/11/27 03:55:31;;;;;;;0.17;0.17;;;;;;;0.85;79.26;97209.22;4978349;28;20046;-46
2021/11/27 03:57:58;;;;;;;0.10;0.10;;;;;;;0.78;78.98;97216.09;4969176;28;20046;-49
2021/11/27 04:00:25;;;;;;;0.45;0.45;;;;;;;0.77;78.58;97225.41;4968347;28;20121;-48
2021/11/27 04:02:52;;;;;;;0.20;0.20;;;;;;;0.76;79.74;97227.97;4975118;28;20068;-52
2021/11/27 04:05:20;;;;;;;0.32;0.32;;;;;;;0.80;78.75;97246.63;4967185;28;20074;-55
2021/11/27 04:07:53;;;;;;;0.50;0.20;;;;;;;0.79;79.50;97242.38;4971731;28;20053;-48
2021/11/27 04:10:21;;;;;;;0.20;0.13;;;;;;;0.80;78.98;97254.25;4969695;28;20043;-48
2021/11/27 04:12:47;;;;;;;0.20;0.10;;;;;;;0.76;79.52;97256.84;4970445;28;20042;-55
2021/11/27 04:15:14;;;;;;;0.30;0.20;;;;;;;0.77;79.52;97281.47;4971212;28;20046;-55
2021/11/27 04:17:41;;;;;;;1.00;0.22;;;;;;;0.80;80.58;97279.75;4970521;28;20105;-46
2021/11/27 04:20:08;;;;;;;0.32;0.30;;;;;;;0.81;80.02;97291.66;4971031;28;20055;-51
2021/11/27 04:22:35;;;;;;;0.40;0.40;;;;;;;0.81;80.04;97297.56;4969370;28;20054;-53
2021/11/27 04:25:02;;;;;;;0.60;0.20;;;;;;;0.80;80.57;97300.13;4966701;28;20050;-49
2021/11/27 04:27:29;;;;;;;0.30;0.20;;;;;;;0.85;80.49;97309.44;4970356;28;20046;-51
2021/11/27 04:29:56;;;;;;;0.10;0.10;;;;;;;0.84;80.00;97309.47;4969055;28;20051;-54
2021/11/27 04:32:23;;;;;;;0.10;0.00;;;;;;;0.81;80.83;97312.03;4968544;28;20121;-53
2021/11/27 04:34:50;;;;;;;0.20;0.20;;;;;;;0.80;80.05;97333.25;4972089;28;20055;-53
2021/11/27 04:37:17;;;;;;;0.38;0.13;;;;;;;0.82;80.91;97340.06;4966675;28;20117;-51
2021/11/27 04:39:44;;;;;;;0.10;0.10;;;;;;;0.80;80.74;97351.94;4969155;28;20097;-50
2021/11/27 04:42:10;;;;;;;0.70;0.70;;;;;;;0.83;80.10;97351.94;4967357;28;20074;-48
2021/11/27 04:44:37;;;;;;;0.20;0.20;;;;;;;0.85;81.38;97368.03;4968024;28;20054;-50
2021/11/27 04:47:04;;;;;;;0.30;0.20;;;;;;;0.88;80.32;97375.66;4969070;28;20043;-53
2021/11/27 04:49:30;;;;;;;0.98;0.30;;;;;;;0.89;81.07;97376.53;4969857;28;20046;-50
2021/11/27 04:51:57;;;;;;;0.30;0.20;;;;;;;0.95;80.87;97380.75;4967318;28;20090;-48
2021/11/27 04:54:24;;;;;;;0.70;0.30;;;;;;;0.92;80.29;97391.81;4969825;28;20047;-51
2021/11/27 04:56:50;;;;;;;1.58;0.10;;;;;;;0.94;80.62;97399.44;4968579;28;20047;-53
2021/11/27 04:59:17;;;;;;;0.57;0.28;;;;;;;0.96;81.17;97418.97;4971128;28;20151;-54
2021/11/27 05:01:44;;;;;;;0.68;0.13;;;;;;;1.00;81.24;97419.78;4971728;28;20047;-47
2021/11/27 05:04:11;;;;;;;0.80;0.47;;;;;;;1.07;81.88;97418.03;4970435;28;20089;-49
2021/11/27 05:06:37;;;;;;;0.43;0.30;;;;;;;1.08;81.44;97438.41;4967820;28;20047;-51
2021/11/27 05:09:04;;;;;;;0.68;0.28;;;;;;;1.13;82.40;97446.03;4970422;28;20043;-47
2021/11/27 05:11:31;;;;;;;1.85;0.32;;;;;;;1.17;82.99;97455.34;4969012;28;20050;-47
2021/11/27 05:13:57;;;;;;;1.17;0.30;;;;;;;1.19;82.37;97451.09;4970188;28;20050;-55
2021/11/27 05:16:26;;;;;;;0.60;0.40;;;;;;;1.22;82.67;97466.38;4970937;28;20047;-51
2021/11/27 05:18:54;;;;;;;1.10;0.20;;;;;;;1.26;82.39;97478.25;4970706;28;20066;-51
2021/11/27 05:21:20;;;;;;;0.40;0.20;;;;;;;1.27;82.26;97490.16;4970916;28;20047;-48
2021/11/27 05:23:47;;;;;;;0.73;0.28;;;;;;;1.33;82.16;97503.72;4968634;28;20059;-46
2021/11/27 05:26:14;;;;;;;0.38;0.22;;;;;;;1.38;81.71;97507.06;4969663;28;20047;-53
2021/11/27 05:28:41;;;;;;;0.35;0.20;;;;;;;1.45;81.54;97511.28;4970585;28;20114;-56
2021/11/27 05:31:09;;;;;;;0.50;0.40;;;;;;;1.46;82.30;97525.75;4970634;28;20109;-53
2021/11/27 05:36:22;;;;;;;0.40;0.22;;;;;;;1.53;81.18;97532.47;4977422;28;20608;-51
2021/11/27 05:38:49;;;;;;;0.10;0.10;;;;;;;1.58;81.76;97550.31;4970414;28;20109;-50
2021/11/27 05:41:16;;;;;;;0.63;0.30;;;;;;;1.56;81.16;97543.53;4968970;28;20726;-53
2021/11/27 05:43:43;;;;;;;1.27;0.30;;;;;;;1.60;79.97;97555.41;4961648;28;20051;-55
2021/11/27 05:46:10;;;;;;;0.40;0.20;;;;;;;1.61;81.34;97559.66;4968552;28;20101;-54
2021/11/27 05:48:37;;;;;;;0.50;0.45;;;;;;;1.65;80.17;97571.53;4966992;28;20055;-50
2021/11/27 05:51:04;;;;;;;0.63;0.43;;;;;;;1.66;81.63;97588.56;4966588;28;20680;-55
2021/11/27 05:53:32;;;;;;;1.10;0.75;;;;;;;1.66;80.64;97591.09;4965512;28;20494;-48
2021/11/27 05:55:58;;;;;;;1.40;0.40;;;;;;;1.65;80.62;97597.91;4968921;28;20105;-49
2021/11/27 05:58:25;;;;;;;1.60;1.40;;;;;;;1.67;80.91;97605.53;4966293;28;20491;-50
2021/11/27 06:00:52;;;;;;;0.65;0.30;;;;;;;1.67;81.98;97626.81;4970121;28;20105;-56
2021/11/27 06:03:19;;;;;;;0.80;0.50;;;;;;;1.68;80.32;97632.75;4969838;28;20050;-50
2021/11/27 06:05:45;;;;;;;0.30;0.20;;;;;;;1.66;81.97;97634.47;4969420;28;20054;-49
2021/11/27 06:08:12;;;;;;;0.47;0.20;;;;;;;1.68;80.63;97642.97;4969009;28;20105;-56
2021/11/27 06:10:38;;;;;;;1.63;0.20;;;;;;;1.64;80.97;97651.50;4968594;28;20101;-54
2021/11/27 06:13:05;;;;;;;0.32;0.13;;;;;;;1.58;81.38;97646.44;4969769;28;20117;-52
2021/11/27 06:15:32;;;;;;;0.47;0.30;;;;;;;1.56;80.48;97663.44;4969426;28;20105;-56
2021/11/27 06:17:59;;;;;;;0.35;0.32;;;;;;;1.51;80.73;97671.97;4969631;28;20093;-49
2021/11/27 06:20:27;;;;;;;0.93;0.30;;;;;;;1.48;80.31;97666.03;4968197;28;20137;-48
2021/11/27 06:22:53;;;;;;;0.38;0.30;;;;;;;1.44;81.10;97672.00;4969684;28;20061;-51
2021/11/27 06:25:25;;;;;;;0.50;0.50;;;;;;;1.37;80.60;97683.94;4967831;28;20631;-55
2021/11/27 06:27:52;;;;;;;0.30;0.20;;;;;;;1.34;80.62;97689.03;4976838;28;20047;-55
2021/11/27 06:30:19;;;;;;;0.38;0.38;;;;;;;1.31;81.83;97691.63;4969639;28;20055;-57
2021/11/27 06:32:46;;;;;;;0.55;0.40;;;;;;;1.31;81.09;97699.28;4966358;28;20046;-58
2021/11/27 06:35:13;;;;;;;1.85;0.20;;;;;;;1.34;81.57;97699.25;4968490;28;20133;-52
2021/11/27 06:37:41;;;;;;;0.70;0.40;;;;;;;1.33;81.64;97710.31;4967231;28;20062;-57
2021/11/27 06:40:09;;;;;;;0.50;0.47;;;;;;;1.31;81.55;97715.41;4968679;28;20047;-51
2021/11/27 06:42:36;;;;;;;1.00;0.45;;;;;;;1.28;81.07;97713.72;4967863;28;20046;-57
2021/11/27 06:45:04;;;;;;;0.82;0.30;;;;;;;1.24;81.10;97740.09;4967655;28;20081;-49
2021/11/27 06:47:31;;;;;;;0.25;0.10;;;;;;;1.20;80.49;97728.19;4968704;28;20102;-53
2021/11/27 06:49:57;;;;;;;0.32;0.13;;;;;;;1.17;80.44;97743.50;4966634;28;20047;-49
2021/11/27 06:52:24;;;;;;;0.20;0.10;;;;;;;1.13;80.78;97746.91;4968764;28;20054;-53
2021/11/27 06:54:50;;;;;;;0.40;0.40;;;;;;;1.09;80.32;97765.63;4968712;28;20051;-54
2021/11/27 06:57:20;;;;;;;0.30;0.30;;;;;;;1.06;80.55;97784.31;4967612;28;20077;-50
2021/11/27 06:59:47;;;;;;;0.25;0.20;;;;;;;1.08;81.35;97799.63;4969110;28;20051;-53
2021/11/27 07:02:13;;;;;;;0.60;0.13;;;;;;;1.11;81.66;97794.50;4963235;28;20115;-52
2021/11/27 07:04:40;;;;;;;0.20;0.20;;;;;;;1.12;81.85;97816.63;4967416;28;20046;-52
2021/11/27 07:07:06;;;;;;;0.15;0.15;;;;;;;1.12;80.76;97796.22;4965760;28;20085;-56
2021/11/27 07:09:34;;;;;;;0.20;0.20;;;;;;;1.14;81.31;97800.44;4968183;28;20058;-55
2021/11/27 07:12:01;;;;;;;0.60;0.20;;;;;;;1.14;80.89;97791.94;4967034;28;20047;-55
2021/11/27 07:14:27;;;;;;;0.70;0.65;;;;;;;1.13;81.28;97797.91;4967572;28;21197;-50
2021/11/27 07:16:54;;;;;;;0.30;0.20;;;;;;;1.10;80.49;97813.19;4967388;28;20047;-54
2021/11/27 07:19:20;;;;;;;0.85;0.30;;;;;;;1.05;80.50;97823.41;4966546;28;20110;-52
2021/11/27 07:21:47;;;;;;;0.82;0.82;;;;;;;1.06;81.19;97809.81;4966619;28;20109;-55
2021/11/27 07:24:13;;;;;;;0.70;0.22;;;;;;;1.08;81.84;97840.41;4967826;28;20079;-53
2021/11/27 07:26:40;;;;;;;1.75;0.63;;;;;;;1.07;80.64;97839.56;4968233;28;20047;-54
2021/11/27 07:29:07;;;;;;;0.55;0.50;;;;;;;1.06;81.93;97863.34;4967837;28;20098;-55
2021/11/27 07:31:33;;;;;;;0.40;0.20;;;;;;;1.07;80.75;97876.94;4967284;28;20098;-48
2021/11/27 07:34:00;;;;;;;0.40;0.40;;;;;;;1.07;81.90;97871.84;4964453;28;20423;-54
2021/11/27 07:36:27;;;;;;;0.50;0.50;;;;;;;1.09;81.16;97896.50;4969360;28;20042;-55
2021/11/27 07:38:53;;;;;;;1.88;0.38;;;;;;;1.07;80.93;97897.34;4966957;28;20109;-53
2021/11/27 07:41:20;;;;;;;0.50;0.32;;;;;;;1.08;81.25;97892.25;4969269;28;20054;-51
2021/11/27 07:43:47;;;;;;;0.60;0.50;;;;;;;1.11;82.15;97909.22;4967745;28;20050;-57
2021/11/27 07:46:15;;;;;;;0.30;0.10;;;;;;;1.14;80.90;97927.09;4964349;28;20542;-53
2021/11/27 07:48:41;;;;;;;0.50;0.20;;;;;;;1.12;81.31;97939.84;4967826;28;20117;-54
2021/11/27 07:51:08;;;;;;;0.75;0.52;;;;;;;1.13;81.34;97933.03;4968255;28;20050;-53
2021/11/27 07:53:36;;;;;;;0.60;0.20;;;;;;;1.14;82.10;97955.13;4968678;28;20109;-55
2021/11/27 07:56:04;;;;;;;0.40;0.30;;;;;;;1.09;80.85;97959.38;4964348;28;20046;-51
2021/11/27 07:58:31;;;;;;;0.50;0.20;;;;;;;1.11;80.78;97963.63;4965621;28;20050;-56
2021/11/27 08:00:57;;;;;;;0.22;0.10;;;;;;;1.06;81.47;97979.78;4963524;28;20125;-48
2021/11/27 08:03:25;;;;;;;0.50;0.10;;;;;;;1.04;81.75;97981.50;4964875;28;20518;-51
2021/11/27 08:05:52;;;;;;;0.90;0.25;;;;;;;1.04;81.24;98007.81;4963319;28;20105;-50
2021/11/27 08:08:22;;;;;;;0.93;0.45;;;;;;;1.05;81.16;98024.84;4967101;28;20038;-51
2021/11/27 08:10:49;;;;;;;0.20;0.20;;;;;;;1.06;81.51;98015.47;4966532;28;20047;-50
2021/11/27 08:13:15;;;;;;;0.20;0.10;;;;;;;1.00;81.22;98014.63;4967240;28;20093;-52
2021/11/27 08:15:42;;;;;;;0.22;0.20;;;;;;;0.96;81.73;98030.75;4966563;28;20085;-55
2021/11/27 08:18:09;;;;;;;0.63;0.30;;;;;;;0.99;82.00;98045.22;4976455;28;20549;-53
2021/11/27 08:20:41;;;;;;;0.50;0.50;;;;;;;0.97;81.67;98042.66;4966762;28;20051;-53
2021/11/27 08:23:08;;;;;;;0.30;0.20;;;;;;;0.99;82.38;98058.81;4961168;28;20109;-50
2021/11/27 08:25:35;;;;;;;0.30;0.20;;;;;;;1.08;82.06;98069.88;4965682;28;20143;-55
2021/11/27 08:28:03;;;;;;;0.35;0.20;;;;;;;1.13;81.90;98074.16;4965967;28;20063;-50
2021/11/27 08:30:30;;;;;;;2.22;0.65;;;;;;;1.15;82.67;98076.72;4961225;28;20073;-49
2021/11/27 08:32:56;;;;;;;0.75;0.75;;;;;;;1.19;81.82;98088.63;4965135;28;20051;-53
2021/11/27 08:35:23;;;;;;;0.90;0.30;;;;;;;1.25;82.29;98098.84;4967549;28;20051;-57
2021/11/27 08:37:50;;;;;;;0.95;0.20;;;;;;;1.31;83.01;98098.00;4963517;28;20082;-55
2021/11/27 08:40:17;;;;;;;1.88;0.68;;;;;;;1.39;81.71;98101.44;4966681;28;20439;-53
2021/11/27 08:42:44;;;;;;;0.40;0.20;;;;;;;1.35;82.07;98096.34;4968175;28;20062;-57
2021/11/27 08:45:12;;;;;;;0.57;0.22;;;;;;;1.30;81.88;98108.19;4970864;28;20051;-51
2021/11/27 08:47:39;;;;;;;0.43;0.30;;;;;;;1.28;82.07;98116.72;4963153;28;20054;-56
2021/11/27 08:50:09;;;;;;;0.30;0.30;;;;;;;1.30;82.41;98120.94;4981743;28;20066;-56
2021/11/27 08:52:36;;;;;;;0.77;0.40;;;;;;;1.32;82.83;98134.56;4963425;28;20842;-53
2021/11/27 08:55:03;;;;;;;1.35;0.30;;;;;;;1.38;82.59;98157.53;4967788;28;20707;-48
2021/11/27 08:57:30;;;;;;;0.47;0.45;;;;;;;1.42;81.31;98161.84;4964263;28;20490;-54
2021/11/27 08:59:57;;;;;;;0.55;0.40;;;;;;;1.45;82.77;98161.81;4967722;28;20046;-53
2021/11/27 09:02:23;;;;;;;0.63;0.20;;;;;;;1.51;82.12;98174.63;4966799;28;20545;-55
2021/11/27 09:04:51;;;;;;;0.52;0.20;;;;;;;1.57;82.32;98171.25;4967148;28;20141;-50
2021/11/27 09:07:18;;;;;;;0.43;0.43;;;;;;;1.64;82.30;98177.19;4966861;28;20039;-52
2021/11/27 09:09:46;;;;;;;0.40;0.32;;;;;;;1.58;81.65;98192.50;4967695;28;20542;-54
2021/11/27 09:12:16;;;;;;;0.35;0.35;;;;;;;1.48;80.87;98225.63;4967327;28;20055;-56
2021/11/27 09:14:43;;;;;;;0.20;0.20;;;;;;;1.41;80.14;98232.41;4964095;28;20419;-56
2021/11/27 09:17:10;;;;;;;0.13;0.13;;;;;;;1.29;80.14;98232.34;4968106;28;20050;-53
2021/11/27 09:19:37;;;;;;;0.40;0.40;;;;;;;1.19;79.59;98238.22;4966208;28;20051;-52
2021/11/27 09:22:04;;;;;;;0.20;0.20;;;;;;;1.04;79.78;98236.47;4968321;28;20541;-48
2021/11/27 09:24:31;;;;;;;0.30;0.20;;;;;;;0.91;79.20;98235.50;4968102;28;20368;-55
2021/11/27 09:26:58;;;;;;;0.35;0.35;;;;;;;0.76;79.30;98253.25;4965786;28;20057;-51
2021/11/27 09:29:25;;;;;;;0.40;0.40;;;;;;;0.73;79.92;98270.19;4966070;28;21281;-51
2021/11/27 09:31:51;;;;;;;0.10;0.10;;;;;;;0.64;80.57;98273.50;4963221;28;20047;-53
2021/11/27 09:34:18;;;;;;;0.20;0.13;;;;;;;0.62;80.42;98267.56;4962994;28;20051;-50
2021/11/27 09:36:46;;;;;;;0.50;0.20;;;;;;;0.53;80.50;98267.50;4964512;28;20062;-52
2021/11/27 09:39:14;;;;;;;0.25;0.20;;;;;;;0.55;80.74;98273.44;4966353;28;20047;-58
2021/11/27 09:41:44;;;;;;;0.20;0.20;;;;;;;0.53;81.14;98282.78;4966327;28;20058;-59
2021/11/27 09:44:13;;;;;;;0.40;0.30;;;;;;;0.55;80.58;98293.84;4968688;28;20118;-51
2021/11/27 09:46:42;;;;;;;0.30;0.30;;;;;;;0.51;80.43;98303.97;4967543;28;20930;-53
2021/11/27 09:49:14;;;;;;;3.10;0.30;;;;;;;0.50;81.41;98306.50;4967178;28;20058;-50
2021/11/27 09:51:40;;;;;;;0.20;0.15;;;;;;;0.50;81.25;98307.38;4968769;28;20078;-51
2021/11/27 09:54:09;;;;;;;0.30;0.20;;;;;;;0.56;81.03;98321.88;4967994;28;20478;-49
2021/11/27 09:56:35;;;;;;;1.13;0.43;;;;;;;0.55;80.57;98320.16;4964272;28;20388;-53
2021/11/27 09:59:03;;;;;;;0.60;0.20;;;;;;;0.56;81.52;98321.00;4968538;28;20494;-52
2021/11/27 10:01:33;;;;;;;1.13;0.40;;;;;;;0.56;81.55;98321.00;4969173;28;20105;-54
2021/11/27 10:04:03;;;;;;;1.30;0.77;;;;;;;0.58;81.78;98321.88;4969667;28;20066;-55
2021/11/27 10:06:34;;;;;;;8.52;0.88;;;;;;;0.62;80.96;98331.28;4971293;28;20360;-53
2021/11/27 10:09:03;;;;;;;;;;;;;;;0.66;81.71;98327.91;4965224;28;20059;-51
2021/11/27 10:11:30;;;;;;;0.30;0.20;;;;;;;0.67;81.94;98321.97;4967688;28;19981;-57
2021/11/27 10:13:57;;;;;;;0.68;0.45;;;;;;;0.70;81.49;98329.66;4967521;28;20483;-52
2021/11/27 10:16:24;;;;;;;1.25;0.40;;;;;;;0.74;81.43;98323.75;4969694;28;20105;-54
2021/11/27 10:19:10;;;;;;;1.63;0.22;;;;;;;0.84;81.90;98318.75;4969367;28;20051;-50
2021/11/27 10:21:38;;;;;;;2.38;0.20;;;;;;;0.92;81.53;98312.00;4969270;28;20055;-54
2021/11/27 10:24:25;;;;;;;1.00;0.73;;;;;;;0.98;81.64;98326.50;4968064;28;20427;-50
2021/11/27 10:26:52;;;;;;;11.57;0.75;;;;;;;1.05;81.11;98315.50;4966019;28;20046;-51
2021/11/27 10:29:26;;;;;;;1.73;0.43;;;;;;;1.12;82.28;98331.72;4968514;28;20043;-50
2021/11/27 10:32:14;;;;;;;1.08;0.60;;;;;;;1.17;82.03;98324.06;4967356;28;20050;-48
2021/11/27 10:34:49;;;;;;;5.22;1.23;;;;;;;1.24;81.88;98331.78;4969069;28;20101;-49
2021/11/27 10:37:24;;;;;;;4.63;0.77;;;;;;;1.34;81.29;98330.16;4972047;28;20042;-55
2021/11/27 10:40:13;;;;;;;4.72;0.68;;;;;;;1.39;80.56;98330.19;4966268;28;20046;-55
2021/11/27 10:42:46;;;;;;;6.43;0.85;;;;;;;1.46;81.74;98329.41;4978677;28;20047;-51
2021/11/27 10:45:21;;;;;;;7.45;0.95;;;;;;;1.52;81.58;98331.97;4969558;28;20053;-59
2021/11/27 10:47:50;;;;;;;6.07;1.35;;;;;;;1.62;81.27;98337.16;4967052;28;20062;-53
2021/11/27 10:50:20;;;;;;;5.72;0.90;;;;;;;1.66;81.26;98349.09;4969177;28;20054;-51
2021/11/27 10:52:48;;;;;;;7.15;1.08;;;;;;;1.70;81.27;98350.81;4967729;28;20114;-54
2021/11/27 10:55:22;;;;;;;5.93;0.63;;;;;;;1.73;80.90;98350.81;4968640;28;20055;-51
2021/11/27 10:57:52;;;;;;;2.80;0.80;;;;;;;1.77;79.77;98356.78;4967152;28;20054;-53
2021/11/27 11:00:33;;;;;;;4.18;1.15;;;;;;;1.77;81.39;98367.88;4967708;28;20054;-53
2021/11/27 11:03:02;;;;;;;8.68;1.63;;;;;;;1.79;79.65;98361.06;4967713;28;20061;-54
2021/11/27 11:05:32;;;;;;;7.78;1.05;;;;;;;1.82;80.50;98359.38;4967089;28;20499;-53
2021/11/27 11:08:00;;;;;;;8.05;0.80;;;;;;;1.86;81.08;98358.53;4967752;28;20046;-56
2021/11/27 11:10:32;;;;;;;7.53;0.80;;;;;;;1.91;79.25;98375.59;4967058;28;20054;-53
2021/11/27 11:13:04;;;;;;;5.78;0.98;;;;;;;1.93;79.99;98393.47;4968040;28;20117;-55
2021/11/27 11:15:43;;;;;;;2.15;0.47;;;;;;;1.97;79.75;98412.22;4963728;28;20118;-55
2021/11/27 11:18:14;;;;;;;2.88;0.63;;;;;;;1.98;80.17;98396.91;4965324;28;20474;-52
2021/11/27 11:20:45;;;;;;;3.15;0.73;;;;;;;2.01;80.62;98412.25;4966998;28;20051;-48
2021/11/27 11:23:30;;;;;;;1.95;0.80;;;;;;;1.99;80.22;98428.41;4962715;28;20497;-53
2021/11/27 11:26:09;;;;;;;7.57;1.00;;;;;;;1.98;80.48;98407.13;4965722;28;20058;-51
2021/11/27 11:28:47;;;;;;;3.33;1.05;;;;;;;1.99;79.37;98424.16;4965948;28;20047;-53
2021/11/27 11:31:17;;;;;;;6.07;0.60;;;;;;;1.98;79.55;98431.78;4963230;28;20097;-52
2021/11/27 11:33:47;;;;;;;3.75;0.70;;;;;;;1.98;79.72;98432.66;4967545;28;20052;-52
2021/11/27 11:36:16;;;;;;;3.45;1.10;;;;;;;1.97;79.26;98423.28;4964411;28;20058;-54
2021/11/27 11:38:45;;;;;;;1.77;0.63;;;;;;;1.99;79.74;98434.34;4964437;28;20046;-50
2021/11/27 11:41:13;;;;;;;11.15;0.95;;;;;;;1.98;80.71;98431.78;4961518;28;20529;-53
2021/11/27 11:43:40;;;;;;;2.28;0.55;;;;;;;2.01;80.00;98436.94;4964631;28;20069;-56
2021/11/27 11:46:07;;;;;;;5.53;0.75;;;;;;;2.02;78.84;98441.19;4963464;28;20097;-55
2021/11/27 11:48:37;;;;;;;2.83;0.93;;;;;;;2.03;78.44;98430.97;4967331;28;20043;-52